Time;durP1;ratioP1;P1;durP2;ratioP2;P2;SDS_P1;SDS_P2;PMS_P1;PMS_P2;Temp;Humidity;BMP_temperature;BMP_pressure;BME280_temperature;BME280_humidity;BME280_pressure;Samples;Min_cycle;Max_cycle;Signal;HPM_P1;HPM_P2
2020/12/30 00:00:47;;;;;;;1387.03;999.90;;;;;;;;;;5037996;28;20406;-68
2020/12/30 00:03:13;;;;;;;393.90;359.25;;;;;;;;;;5054664;28;20524;-68
2020/12/30 00:05:39;;;;;;;342.10;309.67;;;;;;;;;;5057078;28;20029;-69
2020/12/30 00:08:06;;;;;;;612.70;550.47;;;;;;;;;;5055058;28;20043;-67
2020/12/30 00:10:32;;;;;;;383.85;349.35;;;;;;;;;;5057697;28;20033;-67
2020/12/30 00:12:58;;;;;;;397.85;362.88;;;;;;;;;;5054234;28;20033;-68
2020/12/30 00:15:24;;;;;;;365.27;332.00;;;;;;;;;;5059141;28;20437;-68
2020/12/30 00:17:50;;;;;;;361.33;327.92;;;;;;;;;;5057075;28;20078;-68
2020/12/30 00:20:18;;;;;;;382.48;348.33;;;;;;;;;;5058328;28;20036;-68
2020/12/30 00:22:44;;;;;;;;;;;;;;;;;;5046802;28;20508;-68
2020/12/30 00:25:09;;;;;;;761.65;682.85;;;;;;;;;;5058053;28;19905;-68
2020/12/30 00:27:37;;;;;;;374.83;341.00;;;;;;;;;;5051802;28;20104;-68
2020/12/30 00:30:05;;;;;;;859.75;767.40;;;;;;;;;;5047606;28;20140;-68
2020/12/30 00:32:31;;;;;;;396.10;361.17;;;;;;;;;;5053388;28;20404;-68
2020/12/30 00:34:57;;;;;;;393.10;358.25;;;;;;;;;;5057601;28;20025;-68
2020/12/30 00:37:23;;;;;;;349.58;316.67;;;;;;;;;;5051762;28;20040;-68
2020/12/30 00:39:49;;;;;;;359.73;326.27;;;;;;;;;;5053444;28;20041;-67
2020/12/30 00:42:15;;;;;;;346.90;313.90;;;;;;;;;;5054609;28;20062;-67
2020/12/30 00:44:41;;;;;;;363.17;329.67;;;;;;;;;;5056321;28;20056;-68
2020/12/30 00:47:07;;;;;;;359.52;326.15;;;;;;;;;;5054833;28;20028;-68
2020/12/30 00:49:34;;;;;;;368.23;334.65;;;;;;;;;;5058996;28;20033;-68
2020/12/30 00:52:00;;;;;;;1067.85;951.17;;;;;;;;;;5060072;28;20118;-67
2020/12/30 00:54:26;;;;;;;382.45;347.98;;;;;;;;;;5050453;28;20039;-67
2020/12/30 00:56:52;;;;;;;361.52;327.80;;;;;;;;;;5055728;28;20029;-67
2020/12/30 00:59:19;;;;;;;379.27;345.13;;;;;;;;;;5051198;28;20116;-67
2020/12/30 01:01:45;;;;;;;367.42;333.55;;;;;;;;;;5054254;28;20163;-67
2020/12/30 01:04:11;;;;;;;353.55;320.20;;;;;;;;;;5056631;28;20024;-68
2020/12/30 01:06:37;;;;;;;362.92;329.80;;;;;;;;;;5056479;28;20028;-67
2020/12/30 01:09:06;;;;;;;340.13;307.63;;;;;;;;;;5057202;28;20029;-68
2020/12/30 01:11:32;;;;;;;497.02;444.63;;;;;;;;;;5050856;28;20053;-68
2020/12/30 01:13:59;;;;;;;1498.03;999.90;;;;;;;;;;5052927;28;20025;-68
2020/12/30 01:16:25;;;;;;;723.35;645.65;;;;;;;;;;5055017;28;20021;-68
2020/12/30 01:18:51;;;;;;;339.90;307.30;;;;;;;;;;5052672;28;20032;-68
2020/12/30 01:21:17;;;;;;;681.35;610.22;;;;;;;;;;5050636;28;20366;-68
2020/12/30 01:23:43;;;;;;;755.97;676.67;;;;;;;;;;5052028;28;20036;-68
2020/12/30 01:26:10;;;;;;;347.65;314.50;;;;;;;;;;5054368;28;20086;-68
2020/12/30 01:28:36;;;;;;;1999.90;999.90;;;;;;;;;;5051265;28;20111;-67
2020/12/30 01:31:03;;;;;;;383.10;348.73;;;;;;;;;;5051399;28;20037;-67
2020/12/30 01:33:29;;;;;;;358.63;325.33;;;;;;;;;;5050225;28;20118;-67
2020/12/30 01:35:55;;;;;;;625.97;561.67;;;;;;;;;;5054014;28;20384;-68
2020/12/30 01:38:33;;;;;;;359.20;325.75;;;;;;;;;;5044701;28;20029;-68
2020/12/30 01:41:00;;;;;;;339.42;306.80;;;;;;;;;;5046269;28;20052;-69
2020/12/30 01:43:28;;;;;;;;;;;;;;;;;;5047134;28;20017;-69
2020/12/30 01:45:55;;;;;;;931.17;832.65;;;;;;;;;;5049737;28;19911;-67
2020/12/30 01:48:23;;;;;;;1999.90;999.90;;;;;;;;;;5050444;28;20120;-66
2020/12/30 01:50:49;;;;;;;372.60;338.38;;;;;;;;;;5052384;28;20029;-66
2020/12/30 01:53:16;;;;;;;362.02;328.38;;;;;;;;;;5044032;28;20116;-68
2020/12/30 01:55:42;;;;;;;352.37;319.17;;;;;;;;;;5049531;28;20040;-68
2020/12/30 01:58:09;;;;;;;369.13;335.13;;;;;;;;;;5047375;28;20053;-68
2020/12/30 02:00:36;;;;;;;361.43;328.17;;;;;;;;;;5052979;28;20037;-66
2020/12/30 02:03:07;;;;;;;383.70;349.40;;;;;;;;;;5051896;28;20077;-67
2020/12/30 02:05:37;;;;;;;382.95;346.20;;;;;;;;;;5053353;28;20036;-67
2020/12/30 02:08:04;;;;;;;366.40;332.67;;;;;;;;;;5049924;28;20119;-67
2020/12/30 02:10:31;;;;;;;369.33;335.52;;;;;;;;;;5053660;28;20029;-67
2020/12/30 02:12:57;;;;;;;370.60;336.90;;;;;;;;;;5041769;28;20029;-67
2020/12/30 02:15:24;;;;;;;1999.90;999.90;;;;;;;;;;5051422;28;20492;-67
2020/12/30 02:17:51;;;;;;;369.48;335.80;;;;;;;;;;5043427;28;20345;-67
2020/12/30 02:20:17;;;;;;;1999.90;999.90;;;;;;;;;;5050085;28;20045;-68
2020/12/30 02:22:45;;;;;;;1509.70;999.90;;;;;;;;;;5044056;28;20018;-68
2020/12/30 02:25:13;;;;;;;381.85;347.65;;;;;;;;;;5050482;28;20064;-68
2020/12/30 02:27:39;;;;;;;;;;;;;;;;;;5044802;28;20068;-68
2020/12/30 02:30:06;;;;;;;1508.13;999.90;;;;;;;;;;5051927;28;19909;-68
2020/12/30 02:32:32;;;;;;;377.45;343.58;;;;;;;;;;5044111;28;20083;-68
2020/12/30 02:34:58;;;;;;;1012.78;901.85;;;;;;;;;;5049603;28;20044;-68
2020/12/30 02:37:24;;;;;;;364.77;331.45;;;;;;;;;;5046038;28;20374;-68
2020/12/30 02:39:50;;;;;;;352.20;319.05;;;;;;;;;;5045562;28;20428;-68
2020/12/30 02:42:16;;;;;;;822.20;733.70;;;;;;;;;;5037631;28;20021;-68
2020/12/30 02:44:42;;;;;;;1506.75;999.90;;;;;;;;;;5045491;28;20029;-68
2020/12/30 02:47:08;;;;;;;394.38;359.63;;;;;;;;;;5046059;28;20032;-68
2020/12/30 02:49:34;;;;;;;386.05;351.60;;;;;;;;;;5046632;28;20025;-68
2020/12/30 02:52:00;;;;;;;376.25;342.02;;;;;;;;;;5049633;28;20479;-68
2020/12/30 02:54:26;;;;;;;1999.90;999.90;;;;;;;;;;5051078;28;20081;-68
2020/12/30 02:56:52;;;;;;;617.63;554.65;;;;;;;;;;5049197;28;20029;-68
2020/12/30 02:59:18;;;;;;;365.23;331.75;;;;;;;;;;5050012;28;20056;-68
2020/12/30 03:01:45;;;;;;;366.30;332.65;;;;;;;;;;5050872;28;20049;-68
2020/12/30 03:04:11;;;;;;;1999.90;999.90;;;;;;;;;;5049026;28;20485;-68
2020/12/30 03:06:37;;;;;;;1999.90;999.90;;;;;;;;;;5048806;28;20381;-68
2020/12/30 03:09:03;;;;;;;606.50;543.03;;;;;;;;;;5050569;28;20039;-68
2020/12/30 03:11:29;;;;;;;347.48;314.60;;;;;;;;;;5050113;28;20037;-68
2020/12/30 03:13:55;;;;;;;1999.90;999.90;;;;;;;;;;5037628;28;20047;-67
2020/12/30 03:16:21;;;;;;;1999.90;999.90;;;;;;;;;;5051962;28;20486;-68
2020/12/30 03:18:48;;;;;;;1045.32;931.45;;;;;;;;;;5042912;28;20021;-68
2020/12/30 03:21:14;;;;;;;381.80;347.38;;;;;;;;;;5050641;28;20033;-68
2020/12/30 03:23:40;;;;;;;325.00;292.98;;;;;;;;;;5039129;28;20071;-68
2020/12/30 03:26:06;;;;;;;1510.07;999.90;;;;;;;;;;5051722;28;20036;-68
2020/12/30 03:28:32;;;;;;;376.35;342.40;;;;;;;;;;5041034;28;20082;-68
2020/12/30 03:30:58;;;;;;;360.75;327.35;;;;;;;;;;5049703;28;20111;-69
2020/12/30 03:33:24;;;;;;;931.72;833.13;;;;;;;;;;5043052;28;20082;-68
2020/12/30 03:35:50;;;;;;;953.30;850.72;;;;;;;;;;5051581;28;20071;-68
2020/12/30 03:38:16;;;;;;;1999.90;999.90;;;;;;;;;;5049071;28;20033;-68
2020/12/30 03:40:42;;;;;;;1999.90;999.90;;;;;;;;;;5051189;28;20423;-68
2020/12/30 03:43:08;;;;;;;1999.90;999.90;;;;;;;;;;5042674;28;20032;-69
2020/12/30 03:45:34;;;;;;;409.65;369.30;;;;;;;;;;5047379;28;20033;-68
2020/12/30 03:48:00;;;;;;;1510.25;999.90;;;;;;;;;;5047408;28;20485;-68
2020/12/30 03:50:26;;;;;;;349.20;316.35;;;;;;;;;;5048226;28;20037;-68
2020/12/30 03:52:52;;;;;;;354.90;321.67;;;;;;;;;;5043897;28;20035;-67
2020/12/30 03:55:19;;;;;;;1999.90;999.90;;;;;;;;;;5051134;28;20551;-68
2020/12/30 03:57:45;;;;;;;335.55;303.10;;;;;;;;;;5044044;28;20111;-68
2020/12/30 04:00:11;;;;;;;1999.90;999.90;;;;;;;;;;5051678;28;20032;-67
2020/12/30 04:02:37;;;;;;;490.15;441.42;;;;;;;;;;5043155;28;20037;-67
2020/12/30 04:05:03;;;;;;;343.48;310.90;;;;;;;;;;5051448;28;20397;-67
2020/12/30 04:07:29;;;;;;;312.85;281.23;;;;;;;;;;5046844;28;20025;-68
2020/12/30 04:09:55;;;;;;;346.13;313.48;;;;;;;;;;5051455;28;20372;-68
2020/12/30 04:12:21;;;;;;;1999.90;999.90;;;;;;;;;;5047006;28;20432;-69
2020/12/30 04:14:47;;;;;;;1241.05;999.90;;;;;;;;;;5051893;28;20025;-68
2020/12/30 04:17:13;;;;;;;344.75;311.98;;;;;;;;;;5048137;28;20106;-68
2020/12/30 04:19:39;;;;;;;1999.90;999.90;;;;;;;;;;5050899;28;20377;-68
2020/12/30 04:22:05;;;;;;;1999.90;999.90;;;;;;;;;;5046790;28;20030;-66
2020/12/30 04:24:31;;;;;;;367.35;333.45;;;;;;;;;;5039528;28;20094;-68
2020/12/30 04:26:57;;;;;;;323.58;291.58;;;;;;;;;;5049606;28;20041;-68
2020/12/30 04:29:23;;;;;;;335.52;303.27;;;;;;;;;;5050011;28;20040;-68
2020/12/30 04:31:49;;;;;;;341.25;308.35;;;;;;;;;;5042734;28;20024;-68
2020/12/30 04:34:15;;;;;;;347.02;314.10;;;;;;;;;;5045310;28;20033;-68
2020/12/30 04:36:41;;;;;;;818.35;731.60;;;;;;;;;;5050178;28;20167;-68
2020/12/30 04:39:07;;;;;;;359.10;325.73;;;;;;;;;;5030891;28;20516;-68
2020/12/30 04:41:35;;;;;;;343.25;310.50;;;;;;;;;;5062080;28;20036;-68
2020/12/30 04:44:02;;;;;;;349.38;316.45;;;;;;;;;;5055671;28;20100;-68
2020/12/30 04:46:30;;;;;;;353.27;319.98;;;;;;;;;;5049548;28;20040;-68
2020/12/30 04:49:00;;;;;;;364.58;330.95;;;;;;;;;;5036957;28;20044;-68
2020/12/30 04:51:26;;;;;;;355.55;322.58;;;;;;;;;;5055138;28;20025;-67
2020/12/30 04:53:55;;;;;;;371.75;338.05;;;;;;;;;;5039906;28;20504;-67
2020/12/30 04:56:24;;;;;;;336.02;303.73;;;;;;;;;;5051372;28;20127;-68
2020/12/30 04:58:51;;;;;;;361.08;327.90;;;;;;;;;;5046112;28;20029;-67
2020/12/30 05:01:18;;;;;;;428.27;385.35;;;;;;;;;;5054498;28;20048;-68
2020/12/30 05:03:48;;;;;;;361.00;327.58;;;;;;;;;;5045245;28;20489;-67
2020/12/30 05:06:14;;;;;;;902.67;807.58;;;;;;;;;;5054936;28;20056;-67
2020/12/30 05:08:40;;;;;;;1021.08;911.25;;;;;;;;;;5050625;28;20048;-67
2020/12/30 05:11:06;;;;;;;355.80;322.77;;;;;;;;;;5054174;28;20021;-67
2020/12/30 05:13:32;;;;;;;643.17;574.45;;;;;;;;;;5047726;28;20032;-67
2020/12/30 05:15:59;;;;;;;356.98;323.48;;;;;;;;;;5054550;28;20100;-68
2020/12/30 05:18:25;;;;;;;1999.90;999.90;;;;;;;;;;5044671;28;20112;-68
2020/12/30 05:20:51;;;;;;;470.73;424.05;;;;;;;;;;5053817;28;20044;-68
2020/12/30 05:23:17;;;;;;;1999.90;999.90;;;;;;;;;;5052453;28;20104;-68
2020/12/30 05:25:44;;;;;;;320.65;288.42;;;;;;;;;;5053772;28;20106;-67
2020/12/30 05:28:14;;;;;;;333.92;301.52;;;;;;;;;;5040694;28;20025;-68
2020/12/30 05:30:41;;;;;;;1999.90;999.90;;;;;;;;;;5054235;28;20017;-68
2020/12/30 05:33:07;;;;;;;1998.10;999.90;;;;;;;;;;5045705;28;20043;-67
2020/12/30 05:35:34;;;;;;;1999.90;999.90;;;;;;;;;;5048301;28;20029;-67
2020/12/30 05:38:00;;;;;;;1999.90;999.90;;;;;;;;;;5048882;28;20029;-68
2020/12/30 05:40:30;;;;;;;350.87;317.50;;;;;;;;;;5049744;28;20091;-67
2020/12/30 05:43:10;;;;;;;331.00;299.15;;;;;;;;;;5049017;28;20029;-68
2020/12/30 05:45:44;;;;;;;331.88;299.77;;;;;;;;;;5052930;28;20035;-68
2020/12/30 05:48:13;;;;;;;1075.82;952.85;;;;;;;;;;5050597;28;20378;-68
2020/12/30 05:50:49;;;;;;;1003.15;894.92;;;;;;;;;;5052217;28;20393;-68
2020/12/30 05:53:16;;;;;;;329.25;297.17;;;;;;;;;;5050731;28;20385;-68
2020/12/30 05:55:42;;;;;;;1999.90;999.90;;;;;;;;;;5051747;28;20033;-68
2020/12/30 05:58:12;;;;;;;1999.90;999.90;;;;;;;;;;5047938;28;20430;-68
2020/12/30 06:00:38;;;;;;;330.10;297.35;;;;;;;;;;5051584;28;20032;-68
2020/12/30 06:03:04;;;;;;;378.30;341.33;;;;;;;;;;5042690;28;20041;-68
2020/12/30 06:05:30;;;;;;;342.50;309.73;;;;;;;;;;5052394;28;20079;-68
2020/12/30 06:07:56;;;;;;;327.70;295.35;;;;;;;;;;5041341;28;20045;-68
2020/12/30 06:10:23;;;;;;;1186.47;997.47;;;;;;;;;;5051996;28;20090;-69
2020/12/30 06:12:52;;;;;;;351.55;318.52;;;;;;;;;;5047563;28;20061;-68
2020/12/30 06:15:20;;;;;;;334.58;302.13;;;;;;;;;;5051878;28;20159;-69
2020/12/30 06:17:55;;;;;;;341.38;308.52;;;;;;;;;;5044025;28;20073;-68
2020/12/30 06:20:25;;;;;;;332.40;300.17;;;;;;;;;;5040455;28;20116;-68
2020/12/30 06:22:59;;;;;;;348.90;316.00;;;;;;;;;;5044090;28;20025;-68
2020/12/30 06:25:25;;;;;;;479.08;431.95;;;;;;;;;;5051304;28;20027;-68
2020/12/30 06:27:52;;;;;;;316.80;284.77;;;;;;;;;;5043235;28;20029;-68
2020/12/30 06:30:18;;;;;;;315.85;283.98;;;;;;;;;;5049615;28;20032;-68
2020/12/30 06:32:44;;;;;;;364.13;330.95;;;;;;;;;;5041719;28;20091;-68
2020/12/30 06:35:11;;;;;;;1999.90;999.90;;;;;;;;;;5049280;28;20104;-68
2020/12/30 06:37:37;;;;;;;369.38;335.05;;;;;;;;;;5048527;28;20052;-68
2020/12/30 06:40:23;;;;;;;329.33;297.23;;;;;;;;;;5052082;28;20036;-68
2020/12/30 06:42:55;;;;;;;340.30;307.58;;;;;;;;;;5043619;28;20314;-68
2020/12/30 06:45:39;;;;;;;494.70;444.63;;;;;;;;;;5041824;28;20025;-67
2020/12/30 06:48:05;;;;;;;297.80;266.92;;;;;;;;;;5045980;28;20040;-67
2020/12/30 06:50:33;;;;;;;316.05;284.50;;;;;;;;;;5052089;28;20032;-67
2020/12/30 06:53:32;;;;;;;1999.90;999.90;;;;;;;;;;5049116;28;20029;-67
2020/12/30 06:56:00;;;;;;;1501.60;999.90;;;;;;;;;;5039279;28;20040;-67
2020/12/30 06:58:36;;;;;;;;;;;;;;;;;;5051277;28;20478;-68
2020/12/30 07:01:02;;;;;;;305.77;274.98;;;;;;;;;;5045115;28;19913;-68
2020/12/30 07:04:04;;;;;;;323.27;291.77;;;;;;;;;;5048580;28;20024;-68
2020/12/30 07:06:32;;;;;;;1500.75;999.90;;;;;;;;;;5032554;28;20041;-67
2020/12/30 07:09:07;;;;;;;372.42;338.58;;;;;;;;;;5057060;28;20462;-67
2020/12/30 07:11:58;;;;;;;337.75;305.30;;;;;;;;;;5050442;28;20043;-68
2020/12/30 07:14:48;;;;;;;343.52;310.83;;;;;;;;;;5049404;28;20029;-68
2020/12/30 07:17:19;;;;;;;335.38;303.40;;;;;;;;;;5037336;28;20367;-67
2020/12/30 07:19:48;;;;;;;294.08;263.52;;;;;;;;;;5046395;28;20032;-68
2020/12/30 07:22:15;;;;;;;327.98;296.35;;;;;;;;;;5049560;28;20044;-67
2020/12/30 07:24:53;;;;;;;322.15;290.67;;;;;;;;;;5055635;28;20029;-67
2020/12/30 07:27:20;;;;;;;333.95;301.88;;;;;;;;;;5043144;28;20076;-67
2020/12/30 07:29:47;;;;;;;312.05;280.35;;;;;;;;;;5045061;28;20079;-68
2020/12/30 07:32:14;;;;;;;1999.90;999.90;;;;;;;;;;5044523;28;20022;-67
2020/12/30 07:34:42;;;;;;;1998.00;999.90;;;;;;;;;;5049260;28;20497;-68
2020/12/30 07:37:08;;;;;;;318.10;286.30;;;;;;;;;;5049528;28;20033;-67
2020/12/30 07:39:38;;;;;;;345.80;313.38;;;;;;;;;;5050713;28;20028;-68
2020/12/30 07:45:09;;;;;;;341.30;309.08;;;;;;;;;;5042065;28;20045;-67
2020/12/30 07:47:35;;;;;;;341.77;309.52;;;;;;;;;;5041621;28;20032;-67
2020/12/30 07:50:01;;;;;;;366.58;332.75;;;;;;;;;;5048859;28;20029;-68
2020/12/30 07:52:28;;;;;;;1999.90;999.90;;;;;;;;;;5045079;28;20026;-68
2020/12/30 07:54:55;;;;;;;375.95;341.88;;;;;;;;;;5049918;28;20033;-68
2020/12/30 07:57:21;;;;;;;323.63;291.63;;;;;;;;;;5047696;28;20017;-67
2020/12/30 07:59:50;;;;;;;1999.90;999.90;;;;;;;;;;5049850;28;20803;-68
2020/12/30 08:02:17;;;;;;;352.80;319.67;;;;;;;;;;5032292;28;20393;-68
2020/12/30 08:04:45;;;;;;;359.10;326.02;;;;;;;;;;5049588;28;20033;-67
2020/12/30 08:07:12;;;;;;;326.17;294.30;;;;;;;;;;5031102;28;20072;-68
2020/12/30 08:09:41;;;;;;;308.73;277.42;;;;;;;;;;5049912;28;20100;-68
2020/12/30 08:12:07;;;;;;;353.27;320.27;;;;;;;;;;5046563;28;20025;-68
2020/12/30 08:14:34;;;;;;;345.05;312.48;;;;;;;;;;5050779;28;20025;-68
2020/12/30 08:17:04;;;;;;;344.05;311.17;;;;;;;;;;5048255;28;20095;-68
2020/12/30 08:19:45;;;;;;;330.15;298.10;;;;;;;;;;5034735;28;20105;-68
2020/12/30 08:22:12;;;;;;;377.27;343.15;;;;;;;;;;5038291;28;20505;-67
2020/12/30 08:24:39;;;;;;;1999.13;999.90;;;;;;;;;;5048081;28;20098;-67
2020/12/30 08:27:06;;;;;;;319.10;287.27;;;;;;;;;;5049314;28;20029;-67
2020/12/30 08:29:34;;;;;;;315.85;284.42;;;;;;;;;;5050695;28;20029;-67
2020/12/30 08:32:20;;;;;;;336.73;304.45;;;;;;;;;;5051814;28;20025;-67
2020/12/30 08:34:49;;;;;;;323.30;291.58;;;;;;;;;;5049312;28;20056;-68
2020/12/30 08:37:21;;;;;;;1114.57;977.25;;;;;;;;;;5051010;28;20036;-68
2020/12/30 08:39:53;;;;;;;344.70;311.80;;;;;;;;;;5054812;28;20013;-68
2020/12/30 08:42:39;;;;;;;315.63;283.95;;;;;;;;;;5049032;28;20128;-69
2020/12/30 08:45:07;;;;;;;345.40;312.47;;;;;;;;;;5035971;28;20033;-68
2020/12/30 08:47:38;;;;;;;325.35;293.58;;;;;;;;;;5048228;28;20025;-68
2020/12/30 08:50:08;;;;;;;315.30;283.88;;;;;;;;;;5053915;28;20343;-68
2020/12/30 08:52:41;;;;;;;323.27;291.67;;;;;;;;;;5052414;28;20119;-67
2020/12/30 08:55:07;;;;;;;321.15;289.70;;;;;;;;;;5053182;28;20505;-67
2020/12/30 08:57:33;;;;;;;300.65;269.63;;;;;;;;;;5049512;28;20512;-67
2020/12/30 09:00:31;;;;;;;314.10;282.75;;;;;;;;;;5053007;28;20020;-68
2020/12/30 09:03:10;;;;;;;312.45;281.17;;;;;;;;;;5041816;28;20104;-67
2020/12/30 09:05:36;;;;;;;337.75;305.30;;;;;;;;;;5054603;28;20112;-67
2020/12/30 09:08:15;;;;;;;354.40;321.23;;;;;;;;;;5051695;28;20111;-67
2020/12/30 09:10:42;;;;;;;1999.90;999.90;;;;;;;;;;5053078;28;20025;-67
2020/12/30 09:13:14;;;;;;;322.70;290.55;;;;;;;;;;5045576;28;20480;-67
2020/12/30 09:15:41;;;;;;;349.25;316.02;;;;;;;;;;5034229;28;20031;-69
2020/12/30 09:18:08;;;;;;;335.73;303.23;;;;;;;;;;5034560;28;20044;-67
2020/12/30 09:20:34;;;;;;;332.48;299.92;;;;;;;;;;5033063;28;20662;-67
2020/12/30 09:23:01;;;;;;;306.58;275.35;;;;;;;;;;5033855;28;21070;-68
2020/12/30 09:25:28;;;;;;;349.83;316.87;;;;;;;;;;5033941;28;20017;-68
2020/12/30 09:27:54;;;;;;;353.25;319.77;;;;;;;;;;5033858;28;20057;-67
2020/12/30 09:30:23;;;;;;;1999.88;999.90;;;;;;;;;;5034681;28;20029;-68
2020/12/30 09:32:50;;;;;;;1999.90;999.90;;;;;;;;;;5035432;28;20505;-68
2020/12/30 09:35:17;;;;;;;361.45;326.27;;;;;;;;;;5033117;28;20715;-68
2020/12/30 09:37:50;;;;;;;311.77;280.58;;;;;;;;;;5038198;28;20493;-68
2020/12/30 09:40:16;;;;;;;1999.90;999.90;;;;;;;;;;5038942;28;20086;-67
2020/12/30 09:42:43;;;;;;;350.10;316.98;;;;;;;;;;5046456;28;20029;-68
2020/12/30 09:45:11;;;;;;;334.98;302.58;;;;;;;;;;5048049;28;20048;-68
2020/12/30 09:47:37;;;;;;;1999.90;999.90;;;;;;;;;;5052461;28;20103;-68
2020/12/30 09:50:04;;;;;;;752.60;672.00;;;;;;;;;;5053445;28;20029;-68
2020/12/30 09:52:34;;;;;;;332.70;300.55;;;;;;;;;;5048188;28;20071;-67
2020/12/30 09:55:00;;;;;;;1999.38;999.90;;;;;;;;;;5053732;28;20449;-68
2020/12/30 09:57:26;;;;;;;936.85;834.35;;;;;;;;;;5052234;28;20066;-67
2020/12/30 09:59:52;;;;;;;323.30;291.40;;;;;;;;;;5053991;28;20032;-68
2020/12/30 10:02:18;;;;;;;343.15;310.42;;;;;;;;;;5049615;28;20021;-68
2020/12/30 10:04:44;;;;;;;557.13;501.40;;;;;;;;;;5051270;28;20389;-67
2020/12/30 10:07:10;;;;;;;344.02;311.30;;;;;;;;;;5049966;28;20090;-67
2020/12/30 10:09:36;;;;;;;342.40;309.48;;;;;;;;;;5045283;28;20124;-67
2020/12/30 10:12:02;;;;;;;302.48;271.73;;;;;;;;;;5039467;28;20072;-67
2020/12/30 10:14:28;;;;;;;338.05;305.88;;;;;;;;;;5051683;28;20056;-67
2020/12/30 10:16:54;;;;;;;355.33;321.85;;;;;;;;;;5046711;28;20033;-67
2020/12/30 10:19:20;;;;;;;318.50;286.98;;;;;;;;;;5039014;28;20370;-67
2020/12/30 10:21:46;;;;;;;351.45;317.88;;;;;;;;;;5061379;28;20041;-68
2020/12/30 10:24:12;;;;;;;352.17;318.75;;;;;;;;;;5050484;28;20017;-67
2020/12/30 10:26:38;;;;;;;348.55;315.42;;;;;;;;;;5052541;28;20078;-67
2020/12/30 10:29:04;;;;;;;347.20;314.52;;;;;;;;;;5049924;28;20033;-67
2020/12/30 10:31:30;;;;;;;347.50;314.80;;;;;;;;;;5053162;28;20474;-67
2020/12/30 10:33:56;;;;;;;360.52;327.15;;;;;;;;;;5050341;28;20039;-68
2020/12/30 10:36:28;;;;;;;316.23;284.63;;;;;;;;;;5050884;28;20478;-68
2020/12/30 10:38:54;;;;;;;372.45;338.33;;;;;;;;;;5046238;28;20130;-68
2020/12/30 10:41:20;;;;;;;334.33;302.02;;;;;;;;;;5056912;28;20036;-67
2020/12/30 10:43:46;;;;;;;676.97;604.20;;;;;;;;;;5057350;28;20059;-67
2020/12/30 10:46:16;;;;;;;351.35;318.33;;;;;;;;;;5049267;28;20118;-67
2020/12/30 10:48:46;;;;;;;1999.90;999.90;;;;;;;;;;5054194;28;20021;-70
2020/12/30 10:51:16;;;;;;;1999.38;999.90;;;;;;;;;;5057259;28;20029;-67
2020/12/30 10:53:42;;;;;;;341.25;308.65;;;;;;;;;;5044932;28;20899;-69
2020/12/30 10:56:09;;;;;;;320.05;288.38;;;;;;;;;;5050748;28;20037;-68
2020/12/30 10:58:35;;;;;;;1999.90;999.90;;;;;;;;;;5047438;28;20359;-68
2020/12/30 11:01:01;;;;;;;333.80;301.25;;;;;;;;;;5052900;28;20424;-69
2020/12/30 11:03:27;;;;;;;1999.90;999.90;;;;;;;;;;5043901;28;20104;-70
2020/12/30 11:05:58;;;;;;;372.67;338.42;;;;;;;;;;5042784;28;20128;-69
2020/12/30 11:08:24;;;;;;;1999.90;999.90;;;;;;;;;;5046633;28;20033;-68
2020/12/30 11:10:50;;;;;;;402.25;367.00;;;;;;;;;;5052249;28;20428;-69
2020/12/30 11:13:16;;;;;;;345.08;312.45;;;;;;;;;;5048347;28;20090;-69
2020/12/30 11:15:42;;;;;;;345.10;312.25;;;;;;;;;;5049767;28;20036;-69
2020/12/30 11:18:08;;;;;;;1999.90;999.90;;;;;;;;;;5043725;28;20025;-68
2020/12/30 11:20:34;;;;;;;541.65;484.27;;;;;;;;;;5059371;28;20045;-68
2020/12/30 11:23:00;;;;;;;334.95;303.00;;;;;;;;;;5050553;28;20105;-69
2020/12/30 11:25:26;;;;;;;338.23;306.08;;;;;;;;;;5051559;28;20033;-69
2020/12/30 11:27:52;;;;;;;339.27;306.83;;;;;;;;;;5043176;28;20027;-68
2020/12/30 11:30:19;;;;;;;1999.90;999.90;;;;;;;;;;5050223;28;20024;-67
2020/12/30 11:32:45;;;;;;;;;;;;;;;;;;5050222;28;20017;-68
2020/12/30 11:35:12;;;;;;;1412.88;999.90;;;;;;;;;;5049622;28;19955;-71
2020/12/30 11:37:38;;;;;;;1999.90;999.90;;;;;;;;;;5042650;28;20053;-68
2020/12/30 11:40:07;;;;;;;293.63;262.95;;;;;;;;;;5047477;28;20025;-68
2020/12/30 11:42:33;;;;;;;281.17;251.00;;;;;;;;;;5049198;28;20029;-71
2020/12/30 11:44:59;;;;;;;1999.90;999.90;;;;;;;;;;5047802;28;20036;-69
2020/12/30 11:47:25;;;;;;;278.05;247.82;;;;;;;;;;5048370;28;20033;-68
2020/12/30 11:49:52;;;;;;;1999.90;999.90;;;;;;;;;;5049035;28;20477;-73
2020/12/30 11:52:18;;;;;;;1999.90;999.90;;;;;;;;;;5047475;28;20029;-76
2020/12/30 11:54:44;;;;;;;1999.90;999.90;;;;;;;;;;5049713;28;20507;-81
2020/12/30 11:57:10;;;;;;;1999.90;999.90;;;;;;;;;;5049141;28;20025;-75
2020/12/30 11:59:36;;;;;;;1999.90;999.90;;;;;;;;;;5052031;28;20033;-74
2020/12/30 12:02:03;;;;;;;1999.90;999.90;;;;;;;;;;5049258;28;20041;-68
2020/12/30 12:04:29;;;;;;;1999.90;999.90;;;;;;;;;;5050269;28;20053;-66
2020/12/30 12:06:58;;;;;;;1999.90;999.90;;;;;;;;;;5049939;28;20037;-72
2020/12/30 12:09:24;;;;;;;1999.90;999.90;;;;;;;;;;5051756;28;20462;-74
2020/12/30 12:11:51;;;;;;;1999.90;999.90;;;;;;;;;;5042330;28;20017;-71
2020/12/30 12:14:17;;;;;;;1999.90;999.90;;;;;;;;;;5039403;28;20025;-75
2020/12/30 12:16:43;;;;;;;1999.90;999.90;;;;;;;;;;5042488;28;20025;-74
2020/12/30 12:19:09;;;;;;;1999.90;999.90;;;;;;;;;;5042033;28;20743;-74
2020/12/30 12:21:35;;;;;;;1999.90;999.90;;;;;;;;;;5048040;28;20124;-70
2020/12/30 12:24:01;;;;;;;1999.90;999.90;;;;;;;;;;5048266;28;20025;-73
2020/12/30 12:26:27;;;;;;;1999.90;999.90;;;;;;;;;;5050488;28;20036;-77
2020/12/30 12:28:56;;;;;;;1999.90;999.90;;;;;;;;;;5048433;28;20028;-77
2020/12/30 12:31:22;;;;;;;1999.90;999.90;;;;;;;;;;5051334;28;20037;-72
2020/12/30 12:33:48;;;;;;;1999.90;999.90;;;;;;;;;;5044702;28;20036;-73
2020/12/30 12:36:15;;;;;;;1999.90;999.90;;;;;;;;;;5035823;28;20440;-81
2020/12/30 12:38:41;;;;;;;1999.90;999.90;;;;;;;;;;5038084;28;20111;-76
2020/12/30 12:41:07;;;;;;;1999.90;999.90;;;;;;;;;;5049682;28;20557;-78
2020/12/30 12:43:33;;;;;;;1999.90;999.90;;;;;;;;;;5046264;28;20056;-80
2020/12/30 12:46:00;;;;;;;1999.90;999.90;;;;;;;;;;5046043;28;20107;-76
2020/12/30 12:48:26;;;;;;;1999.90;999.90;;;;;;;;;;5040966;28;20033;-83
2020/12/30 12:50:52;;;;;;;1999.90;999.90;;;;;;;;;;5042684;28;20032;-80
2020/12/30 12:53:18;;;;;;;1999.90;999.90;;;;;;;;;;5028807;28;20029;-72
2020/12/30 12:59:09;;;;;;;301.63;270.08;;;;;;;;;;5043057;28;20032;-74
2020/12/30 13:01:52;;;;;;;1999.90;999.90;;;;;;;;;;5045656;28;20440;-77
2020/12/30 13:04:18;;;;;;;283.95;253.95;;;;;;;;;;5038148;28;20063;-73
2020/12/30 13:06:44;;;;;;;290.73;260.23;;;;;;;;;;5037938;28;20037;-77
2020/12/30 13:09:11;;;;;;;269.55;239.73;;;;;;;;;;5042887;28;20029;-74
2020/12/30 13:11:48;;;;;;;1138.57;983.15;;;;;;;;;;5047594;28;20751;-69
2020/12/30 13:14:14;;;;;;;277.70;247.80;;;;;;;;;;5048121;28;20025;-77
2020/12/30 13:16:46;;;;;;;300.20;269.38;;;;;;;;;;5061801;28;20102;-75
2020/12/30 13:19:12;;;;;;;279.15;249.00;;;;;;;;;;5044541;28;20033;-71
2020/12/30 13:21:38;;;;;;;1999.90;999.90;;;;;;;;;;5052021;28;20041;-69
2020/12/30 13:24:29;;;;;;;1999.90;999.90;;;;;;;;;;5045744;28;20040;-71
2020/12/30 13:27:31;;;;;;;1999.90;999.90;;;;;;;;;;5039589;28;20033;-69
2020/12/30 13:29:58;;;;;;;259.23;220.35;;;;;;;;;;5040102;28;20033;-68
2020/12/30 13:32:31;;;;;;;1999.90;999.90;;;;;;;;;;5041853;28;20100;-68
2020/12/30 13:35:25;;;;;;;1999.90;999.90;;;;;;;;;;5050182;28;20087;-70
2020/12/30 13:38:15;;;;;;;1999.90;999.90;;;;;;;;;;5044584;28;20449;-69
2020/12/30 13:40:42;;;;;;;1999.90;999.90;;;;;;;;;;5050792;28;20130;-68
2020/12/30 13:43:08;;;;;;;1999.90;999.90;;;;;;;;;;5051040;28;20536;-68
2020/12/30 13:45:34;;;;;;;1999.90;999.90;;;;;;;;;;5050815;28;20125;-67
2020/12/30 13:48:00;;;;;;;1999.90;999.90;;;;;;;;;;5046921;28;20393;-71
2020/12/30 13:50:27;;;;;;;1999.90;999.90;;;;;;;;;;5051728;28;20029;-70
2020/12/30 13:52:53;;;;;;;259.33;222.82;;;;;;;;;;5050913;28;20028;-72
2020/12/30 13:55:19;;;;;;;264.45;226.20;;;;;;;;;;5041731;28;20362;-70
2020/12/30 13:57:45;;;;;;;262.80;224.65;;;;;;;;;;5049086;28;20075;-68
2020/12/30 14:00:13;;;;;;;1999.90;999.90;;;;;;;;;;5051542;28;20025;-68
2020/12/30 14:02:39;;;;;;;1999.90;999.90;;;;;;;;;;5045186;28;20032;-74